Time;durP1;ratioP1;P1;durP2;ratioP2;P2;SDS_P1;SDS_P2;PMS_P1;PMS_P2;Temp;Humidity;BMP_temperature;BMP_pressure;BME280_temperature;BME280_humidity;BME280_pressure;Samples;Min_cycle;Max_cycle;Signal;HPM_P1;HPM_P2
2022/09/07 00:00:08;;;;;;;11.50;9.85;;;;;;;18.28;100.00;101173.81;1253417;23;20011;-81
2022/09/07 00:00:40;;;;;;;16.00;11.60;;;;;;;18.27;100.00;101176.75;1253670;23;20472;-81
2022/09/07 00:01:11;;;;;;;13.10;11.70;;;;;;;18.23;100.00;101176.47;1257175;23;20022;-81
2022/09/07 00:01:43;;;;;;;13.40;10.68;;;;;;;18.16;100.00;101155.13;1258132;23;20014;-80
2022/09/07 00:02:15;;;;;;;17.00;11.40;;;;;;;18.15;100.00;101147.31;1264620;23;20089;-80
2022/09/07 00:02:46;;;;;;;12.48;11.18;;;;;;;18.19;100.00;101161.88;1264569;23;20021;-80
2022/09/07 00:03:19;;;;;;;16.10;11.30;;;;;;;18.19;100.00;101160.00;1267884;23;20014;-80
2022/09/07 00:03:54;;;;;;;13.07;11.77;;;;;;;18.18;100.00;101162.97;1261712;23;20025;-81
2022/09/07 00:04:27;;;;;;;13.88;11.68;;;;;;;18.23;100.00;101161.09;1261512;23;20010;-81
2022/09/07 00:04:59;;;;;;;12.75;11.50;;;;;;;18.21;100.00;101163.25;1262041;23;20014;-81
2022/09/07 00:05:31;;;;;;;15.60;12.65;;;;;;;18.19;100.00;101160.00;1256446;23;20015;-82
2022/09/07 00:06:10;;;;;;;16.85;12.05;;;;;;;18.14;100.00;101157.28;1250053;23;20329;-82
2022/09/07 00:06:41;;;;;;;11.63;10.32;;;;;;;18.14;100.00;101148.38;1246569;23;20016;-82
2022/09/07 00:07:13;;;;;;;16.08;13.25;;;;;;;18.14;100.00;101151.88;1254326;23;20042;-82
2022/09/07 00:07:45;;;;;;;13.13;11.40;;;;;;;18.13;100.00;101138.66;1261413;23;20022;-81
2022/09/07 00:08:19;;;;;;;11.50;10.43;;;;;;;18.13;100.00;101136.78;1254952;23;20044;-81
2022/09/07 00:08:50;;;;;;;14.93;12.15;;;;;;;18.11;100.00;101135.41;1259480;23;20111;-81
2022/09/07 00:09:22;;;;;;;18.30;12.18;;;;;;;18.10;100.00;101134.59;1258211;23;20015;-82
2022/09/07 00:09:53;;;;;;;14.02;12.57;;;;;;;18.09;100.00;101127.59;1255432;23;20439;-82
2022/09/07 00:10:25;;;;;;;13.40;11.80;;;;;;;18.11;100.00;101130.84;1266573;23;20021;-82
2022/09/07 00:10:59;;;;;;;13.52;12.27;;;;;;;18.15;100.00;101131.94;1260229;23;20015;-82
2022/09/07 00:11:31;;;;;;;16.13;12.52;;;;;;;18.23;100.00;101131.44;1255791;23;20015;-82
2022/09/07 00:12:02;;;;;;;20.40;13.20;;;;;;;18.28;100.00;101127.16;1261752;23;20014;-82
2022/09/07 00:12:34;;;;;;;13.23;12.10;;;;;;;18.32;100.00;101125.56;1262115;23;20138;-82
2022/09/07 00:13:06;;;;;;;13.57;12.27;;;;;;;18.33;100.00;101129.88;1265944;23;20010;-82
2022/09/07 00:13:39;;;;;;;13.88;12.25;;;;;;;18.30;100.00;101139.31;1273491;23;20014;-82
2022/09/07 00:14:11;;;;;;;12.40;11.27;;;;;;;18.28;100.00;101140.63;1267233;23;20025;-81
2022/09/07 00:14:43;;;;;;;16.77;12.30;;;;;;;18.34;100.00;101134.19;1267140;23;20021;-83
2022/09/07 00:15:15;;;;;;;14.32;11.98;;;;;;;18.34;100.00;101134.19;1267337;23;20009;-82
2022/09/07 00:15:46;;;;;;;17.90;12.88;;;;;;;18.23;100.00;101139.53;1258171;23;20022;-82
2022/09/07 00:16:22;;;;;;;14.50;13.02;;;;;;;18.28;100.00;101143.34;1247896;23;20023;-82
2022/09/07 00:16:53;;;;;;;21.27;12.52;;;;;;;18.29;100.00;101142.25;1244305;23;20020;-81
2022/09/07 00:17:25;;;;;;;12.93;11.52;;;;;;;18.27;100.00;101136.31;1245852;23;20015;-82
2022/09/07 00:17:57;;;;;;;17.30;13.15;;;;;;;18.27;100.00;101147.09;1253039;23;20019;-82
2022/09/07 00:18:30;;;;;;;15.05;12.07;;;;;;;18.22;100.00;101140.59;1262989;23;20021;-82
2022/09/07 00:19:03;;;;;;;17.50;12.07;;;;;;;18.19;100.00;101143.00;1268512;23;20326;-81
2022/09/07 00:19:35;;;;;;;13.25;12.07;;;;;;;18.16;100.00;101140.84;1261971;23;20497;-81
2022/09/07 00:20:08;;;;;;;15.43;12.63;;;;;;;18.20;100.00;101134.66;1256109;23;20014;-81
2022/09/07 00:20:39;;;;;;;13.32;12.00;;;;;;;18.24;100.00;101145.75;1255955;23;20062;-82
2022/09/07 00:21:11;;;;;;;18.75;12.15;;;;;;;18.28;100.00;101143.34;1257074;23;20015;-82
2022/09/07 00:21:44;;;;;;;14.32;12.38;;;;;;;18.31;100.00;101142.81;1262950;23;20014;-81
2022/09/07 00:22:15;;;;;;;20.80;12.27;;;;;;;18.33;100.00;101144.16;1267992;23;20353;-81
2022/09/07 00:22:47;;;;;;;14.15;12.85;;;;;;;18.25;100.00;101130.38;1259868;23;20018;-81
2022/09/07 00:23:18;;;;;;;13.82;12.20;;;;;;;18.18;100.00;101126.03;1261393;23;20024;-81
2022/09/07 00:23:51;;;;;;;14.75;12.85;;;;;;;18.10;100.00;101129.22;1261509;23;20015;-80
2022/09/07 00:24:22;;;;;;;14.05;12.18;;;;;;;18.05;100.00;101125.66;1256182;23;20577;-80
2022/09/07 00:24:54;;;;;;;16.63;12.63;;;;;;;18.02;100.00;101113.50;1261290;23;20082;-81
2022/09/07 00:25:25;;;;;;;13.57;12.07;;;;;;;18.00;100.00;101123.72;1261258;23;20015;-80
2022/09/07 00:26:04;;;;;;;14.40;12.93;;;;;;;18.08;100.00;101119.72;1256106;23;20019;-81
2022/09/07 00:26:35;;;;;;;14.70;13.20;;;;;;;18.07;100.00;101127.00;1255339;23;20022;-81
2022/09/07 00:27:07;;;;;;;17.65;14.25;;;;;;;18.16;100.00;101121.97;1247792;23;20043;-82
2022/09/07 00:27:39;;;;;;;21.08;13.30;;;;;;;18.15;100.00;101125.72;1249119;23;20023;-81
2022/09/07 00:28:11;;;;;;;17.42;14.52;;;;;;;18.18;100.00;101120.63;1250444;23;20351;-81
2022/09/07 00:28:42;;;;;;;14.90;12.95;;;;;;;18.15;100.00;101115.75;1256631;23;20359;-82
2022/09/07 00:29:14;;;;;;;14.50;13.05;;;;;;;18.21;100.00;101114.72;1267726;23;20026;-82
2022/09/07 00:29:46;;;;;;;15.38;13.75;;;;;;;18.22;100.00;101107.44;1267561;23;20018;-82
2022/09/07 00:30:17;;;;;;;16.15;12.52;;;;;;;18.32;100.00;101109.38;1261518;23;20018;-82
2022/09/07 00:30:49;;;;;;;18.73;13.65;;;;;;;18.27;100.00;101104.75;1261454;23;20022;-82
2022/09/07 00:31:22;;;;;;;16.33;12.80;;;;;;;18.18;100.00;101099.06;1261445;23;20347;-82
2022/09/07 00:31:54;;;;;;;15.43;13.77;;;;;;;18.15;100.00;101099.59;1262515;23;20021;-81
2022/09/07 00:32:25;;;;;;;13.90;12.70;;;;;;;18.13;100.00;101100.91;1260699;23;20030;-81
2022/09/07 00:32:57;;;;;;;15.20;13.55;;;;;;;18.15;100.00;101096.06;1261439;23;20071;-82
2022/09/07 00:33:29;;;;;;;13.82;12.38;;;;;;;18.09;100.00;101092.53;1255107;23;20011;-82
2022/09/07 00:34:02;;;;;;;16.50;12.45;;;;;;;18.06;100.00;101084.94;1249312;23;20019;-83
2022/09/07 00:34:34;;;;;;;14.68;13.27;;;;;;;18.06;100.00;101084.94;1236104;23;20305;-82
2022/09/07 00:35:05;;;;;;;15.32;12.35;;;;;;;18.11;100.00;101087.69;1238657;23;20357;-82
2022/09/07 00:35:40;;;;;;;13.60;12.30;;;;;;;18.13;100.00;101100.91;1244482;23;20086;-82
2022/09/07 00:36:12;;;;;;;14.38;12.82;;;;;;;18.11;100.00;101101.19;1251915;23;20448;-81
2022/09/07 00:36:44;;;;;;;15.52;13.98;;;;;;;18.14;100.00;101102.53;1262937;23;20157;-81
2022/09/07 00:37:16;;;;;;;15.75;13.90;;;;;;;18.16;100.00;101116.56;1267780;23;20025;-81
2022/09/07 00:37:48;;;;;;;17.15;14.10;;;;;;;18.20;100.00;101123.88;1267496;23;20442;-82
2022/09/07 00:38:19;;;;;;;14.90;13.48;;;;;;;18.32;100.00;101110.19;1267415;23;20024;-82
2022/09/07 00:38:51;;;;;;;18.38;14.32;;;;;;;18.39;100.00;101123.47;1267660;23;20096;-82
2022/09/07 00:39:23;;;;;;;15.10;13.50;;;;;;;18.51;100.00;101124.06;1261089;23;20041;-83
2022/09/07 00:39:54;;;;;;;15.50;14.00;;;;;;;18.49;100.00;101127.00;1260828;23;20018;-82
2022/09/07 00:40:26;;;;;;;17.17;14.05;;;;;;;18.46;100.00;101122.16;1261173;23;20097;-82
2022/09/07 00:40:58;;;;;;;14.70;13.23;;;;;;;18.46;100.00;101122.16;1261218;23;20378;-82
2022/09/07 00:41:30;;;;;;;16.45;13.52;;;;;;;18.41;100.00;101115.91;1254843;23;20058;-81
2022/09/07 00:42:02;;;;;;;15.80;13.98;;;;;;;18.43;100.00;101117.28;1254966;23;20019;-81
2022/09/07 00:42:34;;;;;;;18.02;13.52;;;;;;;18.34;100.00;101108.03;1248859;23;20011;-81
2022/09/07 00:43:06;;;;;;;16.73;14.38;;;;;;;18.26;100.00;101105.03;1250423;23;20439;-81
2022/09/07 00:43:40;;;;;;;15.43;13.88;;;;;;;18.15;100.00;101099.59;1250138;23;20494;-81
2022/09/07 00:44:42;;;;;;;14.75;13.35;;;;;;;18.06;100.00;101084.94;1256669;23;20018;-81
2022/09/07 00:45:16;;;;;;;14.10;12.75;;;;;;;18.00;100.00;101083.28;1262322;23;20026;-80
2022/09/07 00:45:48;;;;;;;15.40;13.90;;;;;;;18.01;100.00;101092.19;1261467;23;20354;-81
2022/09/07 00:46:25;;;;;;;16.08;14.35;;;;;;;18.05;100.00;101088.72;1261155;23;20355;-81
2022/09/07 00:46:57;;;;;;;19.42;15.52;;;;;;;18.11;100.00;101097.66;1261413;23;20383;-81
2022/09/07 00:47:43;;;;;;;14.60;12.82;;;;;;;18.18;100.00;101093.66;1255102;23;20014;-81
2022/09/07 00:48:17;;;;;;;15.68;14.07;;;;;;;18.33;100.00;101100.22;1253991;23;20019;-81
2022/09/07 00:48:54;;;;;;;16.70;13.45;;;;;;;18.37;100.00;101104.03;1253070;23;20022;-82
2022/09/07 00:49:26;;;;;;;15.98;14.13;;;;;;;18.45;100.00;101109.72;1253952;23;20355;-81
2022/09/07 00:50:10;;;;;;;16.48;14.05;;;;;;;18.52;100.00;101114.88;1257447;23;20906;-81
2022/09/07 00:50:46;;;;;;;16.33;14.02;;;;;;;18.53;100.00;101106.53;1255725;23;20019;-81
2022/09/07 00:51:25;;;;;;;15.40;13.18;;;;;;;18.45;100.00;101106.22;1259104;23;20082;-81
2022/09/07 00:51:59;;;;;;;17.48;15.73;;;;;;;18.40;100.00;101106.19;1255370;23;20015;-80
2022/09/07 00:52:32;;;;;;;16.67;13.85;;;;;;;18.43;100.00;101105.69;1254845;23;20354;-81
2022/09/07 00:53:08;;;;;;;17.33;14.60;;;;;;;18.46;100.00;101102.44;1255475;23;20014;-81
2022/09/07 00:53:52;;;;;;;16.80;13.55;;;;;;;18.42;100.00;101109.44;1259812;23;20011;-81
2022/09/07 00:54:29;;;;;;;15.27;13.45;;;;;;;18.43;100.00;101116.47;1261113;23;20462;-81
2022/09/07 00:55:05;;;;;;;16.98;14.77;;;;;;;18.39;100.00;101115.38;1260824;23;20447;-81
2022/09/07 00:55:39;;;;;;;17.30;13.68;;;;;;;18.36;100.00;101121.28;1261190;23;20019;-81
2022/09/07 00:56:11;;;;;;;20.10;13.90;;;;;;;18.32;100.00;101128.25;1261422;23;20021;-81
2022/09/07 00:56:44;;;;;;;16.33;14.73;;;;;;;18.33;100.00;101132.56;1255094;23;20019;-81
2022/09/07 00:57:15;;;;;;;15.23;13.70;;;;;;;18.33;100.00;101128.00;1262411;23;20019;-81
2022/09/07 00:57:50;;;;;;;20.98;13.75;;;;;;;18.30;100.00;101139.31;1260981;23;20014;-81
2022/09/07 00:58:22;;;;;;;21.52;14.95;;;;;;;18.27;100.00;101139.00;1263051;23;20017;-81
2022/09/07 00:58:54;;;;;;;16.48;14.77;;;;;;;18.37;100.00;101134.50;1258014;23;20014;-81
2022/09/07 00:59:30;;;;;;;15.25;13.23;;;;;;;18.33;100.00;101129.88;1244889;23;20023;-81
2022/09/07 01:00:03;;;;;;;15.63;13.98;;;;;;;18.38;100.00;101135.31;1243309;23;20016;-81
2022/09/07 01:00:35;;;;;;;16.23;14.23;;;;;;;18.39;100.00;101132.38;1247532;23;20254;-81
2022/09/07 01:01:07;;;;;;;15.52;14.02;;;;;;;18.39;100.00;101132.38;1257348;23;20015;-80
2022/09/07 01:01:39;;;;;;;17.50;14.43;;;;;;;18.39;100.00;101131.56;1249040;23;20448;-81
2022/09/07 01:02:11;;;;;;;16.23;14.60;;;;;;;18.38;100.00;101133.44;1238468;23;20020;-81
2022/09/07 01:02:44;;;;;;;15.10;13.45;;;;;;;18.36;100.00;101127.50;1243680;23;20039;-81
2022/09/07 01:03:22;;;;;;;14.93;13.38;;;;;;;18.32;100.00;101139.03;1239585;23;20069;-81
2022/09/07 01:03:55;;;;;;;15.65;14.05;;;;;;;18.22;100.00;101139.78;1252264;23;20456;-81
2022/09/07 01:04:28;;;;;;;18.60;14.20;;;;;;;18.30;100.00;101143.88;1255000;23;20463;-81
2022/09/07 01:05:06;;;;;;;14.80;12.98;;;;;;;18.27;100.00;101139.00;1243821;23;20262;-81
2022/09/07 01:05:47;;;;;;;15.82;14.32;;;;;;;18.31;100.00;101150.91;1255032;23;20351;-81
2022/09/07 01:06:21;;;;;;;16.17;14.15;;;;;;;18.39;100.00;101153.13;1259327;23;20046;-82
2022/09/07 01:06:54;;;;;;;14.27;12.88;;;;;;;18.47;100.00;101147.25;1258718;23;20034;-81
2022/09/07 01:07:25;;;;;;;13.63;12.35;;;;;;;18.50;100.00;101162.91;1252294;23;20015;-81
2022/09/07 01:07:57;;;;;;;16.52;14.35;;;;;;;18.52;100.00;101158.06;1250611;23;20385;-81
2022/09/07 01:08:29;;;;;;;17.38;14.13;;;;;;;18.57;100.00;101168.88;1256048;23;20025;-82
2022/09/07 01:09:21;;;;;;;16.42;13.93;;;;;;;18.61;100.00;101169.97;1256201;23;20097;-81
2022/09/07 01:09:54;;;;;;;17.92;14.07;;;;;;;18.59;100.00;101164.00;1255176;23;20075;-81
2022/09/07 01:10:32;;;;;;;16.23;14.35;;;;;;;18.39;100.00;101158.53;1255081;23;20015;-81
2022/09/07 01:11:03;;;;;;;21.77;14.60;;;;;;;18.43;100.00;101165.03;1261105;23;20029;-81
2022/09/07 01:11:36;;;;;;;14.40;13.10;;;;;;;18.34;100.00;101161.16;1263666;23;20114;-81
2022/09/07 01:12:08;;;;;;;19.45;15.38;;;;;;;18.35;100.00;101160.09;1261208;23;20019;-81
2022/09/07 01:12:39;;;;;;;15.07;13.48;;;;;;;18.26;100.00;101156.25;1261165;23;20015;-81
2022/09/07 01:13:11;;;;;;;16.85;15.13;;;;;;;18.26;100.00;101158.97;1252797;23;20025;-81
2022/09/07 01:13:44;;;;;;;17.02;13.95;;;;;;;18.28;100.00;101159.50;1254935;23;20062;-81
2022/09/07 01:14:22;;;;;;;16.40;14.68;;;;;;;18.31;100.00;101150.91;1255633;23;20110;-81
2022/09/07 01:14:54;;;;;;;15.68;14.10;;;;;;;18.25;100.00;101151.94;1257327;23;20027;-82
2022/09/07 01:15:38;;;;;;;15.77;14.13;;;;;;;18.18;100.00;101146.78;1255315;23;20022;-82
2022/09/07 01:16:37;;;;;;;14.57;12.60;;;;;;;18.18;100.00;101139.50;1209472;23;1072871;-81
2022/09/07 01:17:17;;;;;;;18.20;13.77;;;;;;;18.11;100.00;101130.84;1254183;23;20145;-81
2022/09/07 01:17:49;;;;;;;21.77;14.95;;;;;;;18.09;100.00;101137.56;1249582;23;20011;-81
2022/09/07 01:18:32;;;;;;;17.20;14.48;;;;;;;18.05;100.00;101128.34;1249608;23;20022;-81
2022/09/07 01:19:12;;;;;;;16.67;14.65;;;;;;;18.00;100.00;101117.53;1254282;23;20378;-81
2022/09/07 01:19:54;;;;;;;17.40;15.60;;;;;;;17.98;100.00;101119.66;1253749;23;20042;-81
2022/09/07 01:20:49;;;;;;;15.00;13.23;;;;;;;17.96;100.00;101114.53;1249841;23;20027;-81
2022/09/07 01:21:24;;;;;;;23.85;15.20;;;;;;;17.92;100.00;101106.16;1250460;23;20018;-81
2022/09/07 01:22:17;;;;;;;18.55;13.75;;;;;;;17.95;100.00;101112.91;1249124;23;20526;-81
2022/09/07 01:23:00;;;;;;;16.65;14.23;;;;;;;18.05;100.00;101104.88;1255568;23;20015;-81
2022/09/07 01:23:44;;;;;;;16.80;13.93;;;;;;;18.03;100.00;101106.22;1262203;23;20041;-81
2022/09/07 01:24:45;;;;;;;14.55;12.85;;;;;;;17.98;100.00;101106.19;1259607;23;20478;-81
2022/09/07 01:25:38;;;;;;;19.50;14.15;;;;;;;18.06;100.00;101111.91;1255588;23;20015;-81
2022/09/07 01:26:21;;;;;;;14.70;13.13;;;;;;;18.05;100.00;101104.06;1259846;23;20026;-81
2022/09/07 01:27:24;;;;;;;15.82;13.73;;;;;;;18.03;100.00;101107.03;1256666;23;20411;-81
2022/09/07 01:28:12;;;;;;;17.92;13.27;;;;;;;17.96;100.00;101111.84;1261428;23;20014;-80
2022/09/07 01:28:48;;;;;;;15.10;13.50;;;;;;;17.96;100.00;101114.53;1259264;23;20018;-80
2022/09/07 01:29:28;;;;;;;16.25;14.65;;;;;;;17.92;100.00;101099.97;1255676;23;20022;-80
2022/09/07 01:30:02;;;;;;;22.20;14.20;;;;;;;17.89;100.00;101111.25;1255452;23;20019;-80
2022/09/07 01:30:38;;;;;;;18.33;14.35;;;;;;;17.85;100.00;101104.75;1249810;23;20015;-80
2022/09/07 01:31:24;;;;;;;16.23;14.52;;;;;;;17.82;100.00;101097.19;1247482;23;20046;-80
2022/09/07 01:32:08;;;;;;;15.00;13.48;;;;;;;17.83;100.00;101101.53;1254611;23;20078;-79
2022/09/07 01:32:57;;;;;;;16.13;14.45;;;;;;;17.82;100.00;101095.31;1261655;23;20438;-79
2022/09/07 01:33:46;;;;;;;16.45;14.75;;;;;;;17.78;100.00;101087.97;1267826;23;20014;-79
2022/09/07 01:34:24;;;;;;;16.65;15.10;;;;;;;17.77;100.00;101089.06;1261751;23;20359;-80
2022/09/07 01:34:55;;;;;;;16.80;14.82;;;;;;;17.75;100.00;101083.09;1255778;23;20014;-80
2022/09/07 01:35:54;;;;;;;17.83;14.18;;;;;;;17.76;100.00;101085.53;1249794;23;20095;-80
2022/09/07 01:36:54;;;;;;;21.25;14.88;;;;;;;17.77;100.00;101080.97;1249810;23;20019;-80
2022/09/07 01:37:31;;;;;;;15.27;13.77;;;;;;;17.79;100.00;101084.22;1267062;23;20021;-80
2022/09/07 01:38:34;;;;;;;20.42;15.65;;;;;;;17.81;100.00;101092.88;1263561;23;20155;-80
2022/09/07 01:39:07;;;;;;;18.45;14.63;;;;;;;17.83;100.00;101090.75;1261454;23;20422;-80
2022/09/07 01:39:56;;;;;;;16.52;14.73;;;;;;;17.83;100.00;101096.94;1257318;23;20015;-80
2022/09/07 01:40:41;;;;;;;18.58;13.98;;;;;;;17.90;100.00;101099.41;1257688;23;20042;-80
2022/09/07 01:41:22;;;;;;;15.82;14.25;;;;;;;17.88;100.00;101096.16;1259432;23;20018;-80
2022/09/07 01:41:57;;;;;;;15.88;14.27;;;;;;;17.90;100.00;101104.78;1259481;23;20046;-80
2022/09/07 01:42:37;;;;;;;16.52;14.40;;;;;;;17.85;100.00;101104.75;1270004;23;20010;-80
2022/09/07 01:43:12;;;;;;;14.68;13.30;;;;;;;17.93;100.00;101101.59;1264123;23;20014;-80
2022/09/07 01:43:59;;;;;;;15.13;13.63;;;;;;;17.89;100.00;101105.88;1261099;23;20011;-80
2022/09/07 01:44:38;;;;;;;19.50;14.27;;;;;;;17.92;100.00;101106.16;1251376;23;20063;-80
2022/09/07 01:45:12;;;;;;;16.13;14.40;;;;;;;17.98;100.00;101109.69;1251430;23;20030;-80
2022/09/07 01:45:44;;;;;;;16.08;14.25;;;;;;;18.04;100.00;101108.66;1251136;23;20389;-80
2022/09/07 01:46:20;;;;;;;15.10;13.52;;;;;;;18.06;100.00;101111.91;1249701;23;20020;-80
2022/09/07 01:47:06;;;;;;;15.32;13.75;;;;;;;18.11;100.00;101108.47;1248645;23;20380;-80
2022/09/07 01:47:41;;;;;;;15.68;14.13;;;;;;;18.14;100.00;101105.25;1253224;23;20071;-80
2022/09/07 01:48:15;;;;;;;14.75;13.10;;;;;;;18.00;100.00;101110.25;1252829;23;20023;-80
2022/09/07 01:48:49;;;;;;;15.73;14.20;;;;;;;17.93;100.00;101109.66;1252031;23;20044;-80
2022/09/07 01:49:28;;;;;;;15.52;14.02;;;;;;;17.95;100.00;101118.31;1259912;23;20015;-80
2022/09/07 01:50:20;;;;;;;14.38;12.88;;;;;;;17.90;100.00;101112.88;1262546;23;20071;-80
2022/09/07 01:50:58;;;;;;;15.50;13.93;;;;;;;17.89;100.00;101109.38;1266523;23;20385;-80
2022/09/07 01:51:32;;;;;;;16.58;14.27;;;;;;;17.90;100.00;101107.50;1267356;23;20025;-80
2022/09/07 01:52:17;;;;;;;15.68;14.13;;;;;;;17.91;100.00;101109.13;1266277;23;20014;-80
2022/09/07 01:52:59;;;;;;;15.80;12.82;;;;;;;17.92;100.00;101116.13;1263916;23;20734;-79
2022/09/07 01:53:38;;;;;;;14.23;12.77;;;;;;;17.87;100.00;101113.41;1257837;23;20015;-80
2022/09/07 01:54:15;;;;;;;14.27;12.98;;;;;;;17.88;100.00;101115.03;1264112;23;20086;-80
2022/09/07 01:54:51;;;;;;;16.55;13.45;;;;;;;17.86;100.00;101115.28;1258806;23;20015;-79
2022/09/07 01:55:25;;;;;;;16.83;13.57;;;;;;;17.88;100.00;101117.72;1251570;23;20012;-79
2022/09/07 01:56:04;;;;;;;18.48;14.30;;;;;;;17.88;100.00;101125.81;1256223;23;20037;-79
2022/09/07 01:56:40;;;;;;;15.00;13.15;;;;;;;17.84;100.00;101119.31;1263394;23;20019;-79
2022/09/07 01:57:17;;;;;;;17.02;13.70;;;;;;;17.80;100.00;101115.47;1263754;23;20019;-79
2022/09/07 01:58:26;;;;;;;16.73;12.77;;;;;;;17.87;100.00;101118.78;1259291;23;20463;-79
2022/09/07 01:59:03;;;;;;;13.63;12.43;;;;;;;17.84;100.00;101124.69;1243778;23;20417;-80
2022/09/07 01:59:42;;;;;;;14.23;12.90;;;;;;;17.89;100.00;101120.16;1265189;23;20029;-80
2022/09/07 02:00:17;;;;;;;16.20;13.52;;;;;;;17.93;100.00;101123.16;1258886;23;20019;-80
2022/09/07 02:01:03;;;;;;;14.18;12.48;;;;;;;17.95;100.00;101118.31;1257222;23;20040;-80
2022/09/07 02:01:51;;;;;;;14.60;12.70;;;;;;;18.03;100.00;101128.59;1261542;23;20018;-80
2022/09/07 02:02:28;;;;;;;15.15;13.30;;;;;;;17.98;100.00;101123.19;1258506;23;20022;-80
2022/09/07 02:03:40;;;;;;;14.93;13.45;;;;;;;17.97;100.00;101121.56;1253903;23;20022;-80
2022/09/07 02:04:17;;;;;;;16.95;13.05;;;;;;;18.00;100.00;101118.34;1239159;24;20028;-80
2022/09/07 02:05:00;;;;;;;15.85;14.30;;;;;;;17.97;100.00;101113.47;1244487;23;20020;-80
2022/09/07 02:05:45;;;;;;;14.98;13.43;;;;;;;17.91;100.00;101109.13;1252487;23;20026;-80
2022/09/07 02:06:25;;;;;;;15.02;13.57;;;;;;;17.83;100.00;101112.28;1252845;23;20023;-80
2022/09/07 02:07:00;;;;;;;20.38;14.00;;;;;;;17.81;100.00;101101.78;1246032;23;20126;-80
2022/09/07 02:07:42;;;;;;;16.92;15.23;;;;;;;17.79;100.00;101105.78;1241732;23;20027;-81
2022/09/07 02:08:40;;;;;;;18.75;15.68;;;;;;;17.76;100.00;101095.50;1246742;23;20024;-80
2022/09/07 02:09:57;;;;;;;17.42;14.65;;;;;;;17.73;100.00;101098.72;1238115;23;20012;-79
2022/09/07 02:10:39;;;;;;;17.77;16.08;;;;;;;17.70;100.00;101096.53;1247108;23;20059;-80
2022/09/07 02:11:18;;;;;;;17.92;16.13;;;;;;;17.68;100.00;101096.00;1248133;23;20035;-80
2022/09/07 02:11:50;;;;;;;17.65;15.55;;;;;;;17.70;100.00;101099.25;1260284;23;20347;-80
2022/09/07 02:12:47;;;;;;;26.08;15.15;;;;;;;17.81;100.00;101092.88;1260219;23;20011;-81
2022/09/07 02:13:18;;;;;;;16.63;14.27;;;;;;;17.79;100.00;101100.38;1261092;23;20018;-80
2022/09/07 02:14:02;;;;;;;18.98;15.38;;;;;;;17.77;100.00;101097.94;1266014;23;20002;-80
2022/09/07 02:14:37;;;;;;;16.08;14.57;;;;;;;17.72;100.00;101091.72;1265004;23;20014;-81
2022/09/07 02:15:15;;;;;;;18.73;14.82;;;;;;;17.61;100.00;101088.91;1271166;23;19998;-80
2022/09/07 02:16:17;;;;;;;17.33;14.93;;;;;;;17.71;100.00;101090.09;1273258;23;20014;-80
2022/09/07 02:16:59;;;;;;;15.65;13.85;;;;;;;17.64;100.00;101086.78;1267072;23;20014;-79
2022/09/07 02:17:33;;;;;;;18.70;16.70;;;;;;;17.70;100.00;101085.78;1255456;23;20015;-80
2022/09/07 02:18:06;;;;;;;16.38;14.75;;;;;;;17.71;100.00;101084.69;1250003;23;20015;-80
2022/09/07 02:18:43;;;;;;;16.60;15.05;;;;;;;17.69;100.00;101089.53;1246367;23;20007;-80
2022/09/07 02:19:18;;;;;;;16.70;14.77;;;;;;;17.70;100.00;101086.59;1247862;23;20020;-80
2022/09/07 02:19:53;;;;;;;18.73;16.83;;;;;;;17.71;100.00;101080.13;1256738;23;20018;-80
2022/09/07 02:20:29;;;;;;;16.70;14.77;;;;;;;17.67;100.00;101083.56;1257731;23;20015;-80
2022/09/07 02:21:02;;;;;;;17.33;15.68;;;;;;;17.61;100.00;101085.41;1257188;23;20039;-80
2022/09/07 02:21:37;;;;;;;17.65;15.85;;;;;;;17.60;100.00;101076.50;1258416;23;20014;-80
2022/09/07 02:22:13;;;;;;;18.00;14.77;;;;;;;17.56;100.00;101080.78;1268825;23;20045;-80
2022/09/07 02:22:48;;;;;;;17.73;14.90;;;;;;;17.49;100.00;101074.78;1276220;23;20030;-80
2022/09/07 02:23:33;;;;;;;15.95;14.40;;;;;;;17.53;100.00;101075.09;1279210;23;20013;-80
2022/09/07 02:24:11;;;;;;;18.33;15.02;;;;;;;17.49;100.00;101079.34;1268086;23;20078;-80
2022/09/07 02:24:48;;;;;;;16.45;14.80;;;;;;;17.51;100.00;101066.44;1260517;23;20014;-80
2022/09/07 02:25:22;;;;;;;19.45;16.13;;;;;;;17.53;100.00;101069.69;1259186;23;20018;-80
2022/09/07 02:26:03;;;;;;;20.35;15.45;;;;;;;17.55;100.00;101062.19;1262580;23;20018;-80
2022/09/07 02:26:38;;;;;;;20.08;16.63;;;;;;;17.54;100.00;101055.19;1261337;23;20022;-80
2022/09/07 02:27:17;;;;;;;17.35;14.77;;;;;;;17.55;100.00;101063.00;1263304;23;20085;-80
2022/09/07 02:27:54;;;;;;;18.20;16.13;;;;;;;17.59;100.00;101066.81;1257724;23;20018;-80
2022/09/07 02:28:32;;;;;;;18.23;16.25;;;;;;;17.54;100.00;101058.69;1260051;23;20137;-80
2022/09/07 02:29:04;;;;;;;23.63;18.17;;;;;;;17.55;100.00;101068.41;1254866;23;20012;-80
2022/09/07 02:29:36;;;;;;;17.08;15.15;;;;;;;17.50;100.00;101065.63;1261067;23;20467;-80
2022/09/07 02:30:09;;;;;;;18.35;16.45;;;;;;;17.52;100.00;101068.88;1266405;23;20014;-80
2022/09/07 02:30:41;;;;;;;18.10;16.30;;;;;;;17.53;100.00;101067.84;1254348;23;20032;-80
2022/09/07 02:31:13;;;;;;;17.80;16.08;;;;;;;17.57;100.00;101063.56;1254800;23;20019;-80
2022/09/07 02:31:46;;;;;;;17.45;15.63;;;;;;;17.65;100.00;101066.84;1254647;23;20039;-80
2022/09/07 02:32:17;;;;;;;16.83;15.13;;;;;;;17.65;100.00;101056.06;1255865;23;20026;-80
2022/09/07 02:32:49;;;;;;;16.77;15.18;;;;;;;17.64;100.00;101063.34;1260866;23;20011;-80
2022/09/07 02:33:22;;;;;;;17.08;15.40;;;;;;;17.64;100.00;101054.44;1262337;23;20014;-80
2022/09/07 02:33:54;;;;;;;17.80;16.00;;;;;;;17.60;100.00;101060.34;1255037;23;20015;-79
2022/09/07 02:34:25;;;;;;;17.40;15.60;;;;;;;17.59;100.00;101056.03;1255854;23;20032;-80
2022/09/07 02:34:57;;;;;;;21.55;15.65;;;;;;;17.59;100.00;101053.34;1267650;23;20014;-79
2022/09/07 02:35:28;;;;;;;19.73;15.57;;;;;;;17.63;100.00;101055.50;1269601;23;19998;-80
2022/09/07 02:36:01;;;;;;;16.50;14.77;;;;;;;17.71;100.00;101049.69;1279164;23;20397;-80
2022/09/07 02:36:38;;;;;;;17.98;15.70;;;;;;;17.69;100.00;101052.63;1270691;23;20017;-80
2022/09/07 02:37:10;;;;;;;18.10;15.52;;;;;;;17.72;100.00;101057.50;1261121;23;20006;-80
2022/09/07 02:37:42;;;;;;;18.77;15.88;;;;;;;17.78;100.00;101055.66;1254121;23;20015;-80
2022/09/07 02:38:14;;;;;;;19.70;15.60;;;;;;;17.83;100.00;101053.00;1254861;23;20023;-80
2022/09/07 02:38:46;;;;;;;16.35;14.55;;;;;;;17.82;100.00;101051.38;1248142;23;20026;-80
2022/09/07 02:39:17;;;;;;;15.50;14.05;;;;;;;17.83;100.00;101058.41;1254266;23;20455;-80
2022/09/07 02:39:49;;;;;;;16.98;15.02;;;;;;;17.88;100.00;101061.13;1260029;23;20018;-80
2022/09/07 02:40:21;;;;;;;17.42;14.73;;;;;;;17.93;100.00;101058.47;1262114;23;20467;-80
2022/09/07 02:40:56;;;;;;;18.77;16.25;;;;;;;17.90;100.00;101058.97;1267499;23;20014;-80
2022/09/07 02:41:37;;;;;;;17.02;15.25;;;;;;;17.99;100.00;101057.41;1260433;23;20014;-80
2022/09/07 02:42:14;;;;;;;;;;;;;;;17.94;100.00;101062.78;1255322;23;20018;-80
2022/09/07 02:42:46;;;;;;;17.52;15.90;;;;;;;17.87;100.00;101054.13;1259277;23;19901;-80
2022/09/07 02:43:19;;;;;;;15.70;13.57;;;;;;;17.88;100.00;101056.53;1259536;23;20025;-80
2022/09/07 02:43:51;;;;;;;15.68;14.25;;;;;;;17.91;100.00;101055.22;1258602;23;20328;-80
2022/09/07 02:44:26;;;;;;;17.63;14.35;;;;;;;17.84;100.00;101054.63;1251543;23;20030;-80
2022/09/07 02:44:58;;;;;;;17.58;15.57;;;;;;;17.80;100.00;101058.88;1242764;23;20020;-80